createdAt,value
2018-10-11T00:00:45.810Z,99.90
2018-10-11T00:03:14.954Z,99.90
2018-10-11T00:05:44.155Z,99.90
2018-10-11T00:08:13.491Z,99.90
2018-10-11T00:10:42.705Z,99.90
2018-10-11T00:13:11.961Z,99.90
2018-10-11T00:15:41.114Z,99.90
2018-10-11T00:18:10.518Z,99.90
2018-10-11T00:20:39.706Z,99.90
2018-10-11T00:23:08.863Z,99.90
2018-10-11T00:25:38.144Z,99.90
2018-10-11T00:28:07.448Z,99.90
2018-10-11T00:30:36.616Z,99.90
2018-10-11T00:33:05.829Z,99.90
2018-10-11T00:35:35.066Z,99.90
2018-10-11T00:38:04.310Z,99.90
2018-10-11T00:40:33.425Z,99.90
2018-10-11T00:43:02.588Z,99.90
2018-10-11T00:45:31.806Z,99.90
2018-10-11T00:48:01.055Z,99.90
2018-10-11T00:50:30.218Z,99.90
2018-10-11T00:52:59.410Z,99.90
2018-10-11T00:55:29.710Z,99.90
2018-10-11T00:57:58.921Z,99.90
2018-10-11T01:00:28.104Z,99.90
2018-10-11T01:02:57.242Z,99.90
2018-10-11T01:05:26.430Z,99.90
2018-10-11T01:07:56.000Z,99.90
2018-10-11T01:10:25.192Z,99.90
2018-10-11T01:12:54.593Z,99.90
2018-10-11T01:15:23.875Z,99.90
2018-10-11T01:17:53.073Z,99.90
2018-10-11T01:20:22.237Z,99.90
2018-10-11T01:22:51.394Z,99.90
2018-10-11T01:25:20.566Z,99.90
2018-10-11T01:27:49.728Z,99.90
2018-10-11T01:30:18.903Z,99.90
2018-10-11T01:32:48.058Z,99.90
2018-10-11T01:35:17.208Z,99.90
2018-10-11T01:37:46.447Z,99.90
2018-10-11T01:40:15.577Z,99.90
2018-10-11T01:42:44.783Z,99.90
2018-10-11T01:45:14.018Z,99.90
2018-10-11T01:47:43.214Z,99.90
2018-10-11T01:50:12.371Z,99.90
2018-10-11T01:52:41.535Z,99.90
2018-10-11T01:55:10.774Z,99.90
2018-10-11T01:57:40.043Z,99.90
2018-10-11T02:00:09.320Z,99.90
2018-10-11T02:02:38.557Z,99.90
2018-10-11T02:05:08.395Z,99.90
2018-10-11T02:07:37.744Z,99.90
2018-10-11T02:10:07.011Z,99.90
2018-10-11T02:12:36.179Z,99.90
2018-10-11T02:15:05.410Z,99.90
2018-10-11T02:17:34.622Z,99.90
2018-10-11T02:20:03.869Z,99.90
2018-10-11T02:22:33.017Z,99.90
2018-10-11T02:25:02.180Z,99.90
2018-10-11T02:27:31.351Z,99.90
2018-10-11T02:30:00.580Z,99.90
2018-10-11T02:32:29.786Z,99.90
2018-10-11T02:34:59.010Z,99.90
2018-10-11T02:37:28.261Z,99.90
2018-10-11T02:39:57.538Z,99.90
2018-10-11T02:42:27.453Z,99.90
2018-10-11T02:44:56.642Z,99.90
2018-10-11T02:47:25.943Z,99.90
2018-10-11T02:49:55.110Z,99.90
2018-10-11T02:52:24.311Z,99.90
2018-10-11T02:54:53.660Z,99.90
2018-10-11T02:57:33.997Z,99.90
2018-10-11T03:00:03.813Z,99.90
2018-10-11T03:02:34.178Z,99.90
2018-10-11T03:05:03.534Z,99.90
2018-10-11T03:07:32.710Z,99.90
2018-10-11T03:10:01.938Z,99.90
2018-10-11T03:12:31.099Z,99.90
2018-10-11T03:15:00.266Z,99.90
2018-10-11T03:17:29.465Z,99.90
2018-10-11T03:19:58.741Z,99.90
2018-10-11T03:22:27.930Z,99.90
2018-10-11T03:24:57.406Z,99.90
2018-10-11T03:27:26.569Z,99.90
2018-10-11T03:29:55.718Z,99.90
2018-10-11T03:32:24.894Z,99.90
2018-10-11T03:34:54.027Z,99.90
2018-10-11T03:37:23.275Z,99.90
2018-10-11T03:39:52.460Z,99.90
2018-10-11T03:42:21.665Z,99.90
2018-10-11T03:44:50.810Z,99.90
2018-10-11T03:47:19.957Z,99.90
2018-10-11T03:49:49.122Z,99.90
2018-10-11T03:52:18.283Z,99.90
2018-10-11T03:54:47.476Z,99.90
2018-10-11T03:57:16.651Z,99.90
2018-10-11T03:59:45.882Z,99.90
2018-10-11T04:02:15.137Z,99.90
2018-10-11T04:04:44.334Z,99.90
2018-10-11T04:07:13.530Z,99.90
2018-10-11T04:09:42.733Z,99.90
2018-10-11T04:12:11.885Z,99.90
2018-10-11T04:14:41.074Z,99.90
2018-10-11T04:17:10.235Z,99.90
2018-10-11T04:19:39.413Z,99.90
2018-10-11T04:22:08.635Z,99.90
2018-10-11T04:24:37.816Z,99.90
2018-10-11T04:27:07.410Z,99.90
2018-10-11T04:29:36.566Z,99.90
2018-10-11T04:32:05.732Z,99.90
2018-10-11T04:34:34.922Z,99.90
2018-10-11T04:37:04.109Z,99.90
2018-10-11T04:39:33.283Z,99.90
2018-10-11T04:42:02.465Z,99.90
2018-10-11T04:44:34.621Z,99.90
2018-10-11T04:47:05.360Z,99.90
2018-10-11T04:49:34.888Z,99.90
2018-10-11T04:52:04.076Z,99.90
2018-10-11T04:54:33.247Z,99.90
2018-10-11T04:57:02.417Z,99.90
2018-10-11T04:59:31.657Z,99.90
2018-10-11T05:02:00.782Z,99.90
2018-10-11T05:04:30.004Z,99.90
2018-10-11T05:06:59.221Z,99.90
2018-10-11T05:09:28.393Z,99.90
2018-10-11T05:11:57.668Z,99.90
2018-10-11T05:14:27.269Z,99.90
2018-10-11T05:16:56.519Z,99.90
2018-10-11T05:19:25.786Z,99.90
2018-10-11T05:21:55.124Z,99.90
2018-10-11T05:24:24.452Z,99.90
2018-10-11T05:26:53.615Z,99.90
2018-10-11T05:29:22.841Z,99.90
2018-10-11T05:31:52.073Z,99.90
2018-10-11T05:34:21.246Z,99.90
2018-10-11T05:36:50.489Z,99.90
2018-10-11T05:39:19.787Z,99.90
2018-10-11T05:41:49.083Z,99.90
2018-10-11T05:44:18.352Z,99.90
2018-10-11T05:46:48.621Z,99.90
2018-10-11T05:49:19.373Z,99.90
2018-10-11T05:51:48.673Z,99.90
2018-10-11T05:54:18.267Z,99.90
2018-10-11T05:56:48.026Z,99.90
2018-10-11T05:59:17.255Z,99.90
2018-10-11T06:01:46.535Z,99.90
2018-10-11T06:04:15.869Z,99.90
2018-10-11T06:06:46.795Z,99.90
2018-10-11T06:09:16.493Z,99.90
2018-10-11T06:11:46.220Z,99.90
2018-10-11T06:14:15.941Z,99.90
2018-10-11T06:16:45.201Z,99.90
2018-10-11T06:19:15.921Z,99.90
2018-10-11T06:21:45.214Z,99.90
2018-10-11T06:24:14.654Z,99.90
2018-10-11T06:26:50.527Z,99.90
2018-10-11T06:29:19.780Z,99.90
2018-10-11T06:31:49.047Z,99.90
2018-10-11T06:34:18.319Z,99.90
2018-10-11T06:36:47.558Z,99.90
2018-10-11T06:39:16.822Z,99.90
2018-10-11T06:41:45.983Z,99.90
2018-10-11T06:44:15.294Z,99.90
2018-10-11T06:46:45.228Z,99.90
2018-10-11T06:49:14.573Z,99.90
2018-10-11T06:51:43.822Z,99.90
2018-10-11T06:54:13.003Z,99.90
2018-10-11T06:56:42.187Z,99.90
2018-10-11T06:59:11.482Z,99.90
2018-10-11T07:01:40.723Z,99.90
2018-10-11T07:04:09.849Z,99.90
2018-10-11T07:06:39.046Z,99.90
2018-10-11T07:09:08.916Z,99.90
2018-10-11T07:11:38.192Z,99.90
2018-10-11T07:14:07.446Z,99.90
2018-10-11T07:16:36.582Z,99.90
2018-10-11T07:19:05.861Z,99.90
2018-10-11T07:21:35.077Z,99.90
2018-10-11T07:24:04.333Z,99.90
2018-10-11T07:26:33.755Z,99.90
2018-10-11T07:29:03.052Z,99.90
2018-10-11T07:31:32.256Z,99.90
2018-10-11T07:34:01.475Z,99.90
2018-10-11T07:36:30.708Z,99.90
2018-10-11T07:39:00.016Z,99.90
2018-10-11T07:41:29.249Z,99.90
2018-10-11T07:43:58.426Z,99.90
2018-10-11T07:46:27.743Z,99.90
2018-10-11T07:48:56.918Z,99.90
2018-10-11T07:51:26.038Z,99.90
2018-10-11T07:53:59.693Z,99.90
2018-10-11T07:56:29.841Z,99.90
2018-10-11T07:58:59.639Z,99.90
2018-10-11T08:01:29.707Z,99.90
2018-10-11T08:03:59.178Z,99.90
2018-10-11T08:06:28.693Z,99.90
2018-10-11T08:08:58.001Z,99.90
2018-10-11T08:11:27.228Z,99.90
2018-10-11T08:13:56.245Z,99.90
2018-10-11T08:16:25.503Z,99.90
2018-10-11T08:18:54.816Z,99.90
2018-10-11T08:21:23.826Z,99.90
2018-10-11T08:23:53.014Z,99.60
2018-10-11T08:26:22.522Z,99.80
2018-10-11T08:28:51.437Z,99.60
2018-10-11T08:31:20.638Z,99.00
2018-10-11T08:33:49.855Z,98.80
2018-10-11T08:36:19.053Z,98.70
2018-10-11T08:38:48.207Z,98.90
2018-10-11T08:41:17.406Z,99.50
2018-10-11T08:43:46.698Z,99.30
2018-10-11T08:46:15.934Z,99.10
2018-10-11T08:48:45.220Z,98.90
2018-10-11T08:51:14.502Z,98.50
2018-10-11T08:53:43.700Z,98.60
2018-10-11T08:56:12.837Z,98.30
2018-10-11T08:58:42.135Z,98.20
2018-10-11T09:01:11.693Z,98.60
2018-10-11T09:03:41.087Z,97.90
2018-10-11T09:06:10.184Z,97.70
2018-10-11T09:08:39.458Z,97.90
2018-10-11T09:11:08.716Z,98.00
2018-10-11T09:13:37.882Z,97.90
2018-10-11T09:16:07.242Z,97.70
2018-10-11T09:18:36.457Z,97.10
2018-10-11T09:21:06.384Z,96.80
2018-10-11T09:23:35.613Z,96.30
2018-10-11T09:26:04.785Z,96.20
2018-10-11T09:28:34.054Z,96.00
2018-10-11T09:31:03.295Z,95.50
2018-10-11T09:33:32.574Z,95.50
2018-10-11T09:36:01.746Z,95.40
2018-10-11T09:38:30.932Z,95.60
2018-10-11T09:41:00.174Z,95.40
2018-10-11T09:43:29.634Z,95.30
2018-10-11T09:45:58.880Z,95.00
2018-10-11T09:48:28.087Z,94.50
2018-10-11T09:50:57.225Z,94.40
2018-10-11T09:53:26.445Z,94.50
2018-10-11T09:55:55.754Z,94.30
2018-10-11T09:58:25.039Z,94.40
2018-10-11T10:00:59.653Z,94.30
2018-10-11T10:03:28.876Z,94.30
2018-10-11T10:05:58.038Z,94.00
2018-10-11T10:08:27.259Z,93.70
2018-10-11T10:10:56.503Z,93.60
2018-10-11T10:13:25.730Z,93.30
2018-10-11T10:15:54.929Z,93.40
2018-10-11T10:18:24.170Z,93.50
2018-10-11T10:20:53.406Z,93.60
2018-10-11T10:23:22.573Z,93.20
2018-10-11T10:25:51.895Z,92.90
2018-10-11T10:28:21.132Z,92.20
2018-10-11T10:30:53.343Z,92.30
2018-10-11T10:33:23.959Z,91.90
2018-10-11T10:35:53.215Z,92.00
2018-10-11T10:38:23.489Z,92.10
2018-10-11T10:40:52.741Z,92.00
2018-10-11T10:43:22.854Z,92.00
2018-10-11T10:45:52.098Z,92.10
2018-10-11T10:48:21.602Z,92.00
2018-10-11T10:50:50.870Z,92.00
2018-10-11T10:53:20.093Z,91.90
2018-10-11T10:55:49.248Z,92.00
2018-10-11T10:58:18.914Z,91.60
2018-10-11T11:00:48.156Z,91.40
2018-10-11T11:03:17.579Z,90.80
2018-10-11T11:05:47.364Z,90.80
2018-10-11T11:08:16.653Z,90.60
2018-10-11T11:10:45.879Z,91.20
2018-10-11T11:13:15.149Z,90.80
2018-10-11T11:15:44.257Z,90.80
2018-10-11T11:18:13.762Z,90.30
2018-10-11T11:20:42.992Z,90.00
2018-10-11T11:23:12.235Z,90.10
2018-10-11T11:25:41.603Z,90.90
2018-10-11T11:28:10.658Z,90.50
2018-10-11T11:30:39.833Z,90.50
2018-10-11T11:33:09.101Z,90.40
2018-10-11T11:35:38.274Z,90.40
2018-10-11T11:38:07.530Z,90.30
2018-10-11T11:40:36.788Z,90.30
2018-10-11T11:43:06.491Z,90.00
2018-10-11T11:45:35.747Z,90.00
2018-10-11T11:48:05.626Z,89.80
2018-10-11T11:50:34.911Z,89.20
2018-10-11T11:53:04.127Z,88.90
2018-10-11T11:55:33.693Z,88.80
2018-10-11T11:58:03.190Z,88.50
2018-10-11T12:00:32.267Z,88.40
2018-10-11T12:03:01.706Z,87.80
2018-10-11T12:05:31.258Z,87.30
2018-10-11T12:08:00.549Z,87.20
2018-10-11T12:10:29.771Z,87.20
2018-10-11T12:13:02.150Z,86.80
2018-10-11T12:15:32.127Z,87.10
2018-10-11T12:18:02.426Z,87.50
2018-10-11T12:20:32.717Z,87.80
2018-10-11T12:23:02.985Z,88.10
2018-10-11T12:25:32.418Z,88.00
2018-10-11T12:28:01.690Z,86.10
2018-10-11T12:30:31.211Z,86.40
2018-10-11T12:33:00.648Z,86.10
2018-10-11T12:35:30.306Z,85.40
2018-10-11T12:37:59.609Z,85.80
2018-10-11T12:40:28.870Z,85.40
2018-10-11T12:42:58.123Z,85.30
2018-10-11T12:45:27.423Z,85.10
2018-10-11T12:47:56.588Z,85.10
2018-10-11T12:50:25.857Z,86.40
2018-10-11T12:52:55.075Z,86.80
2018-10-11T12:55:24.263Z,85.90
2018-10-11T12:57:53.476Z,86.30
2018-10-11T13:00:22.677Z,86.70
2018-10-11T13:02:52.031Z,86.60
2018-10-11T13:05:21.191Z,87.10
2018-10-11T13:07:50.486Z,87.70
2018-10-11T13:10:19.749Z,86.70
2018-10-11T13:12:48.920Z,87.10
2018-10-11T13:15:18.123Z,87.00
2018-10-11T13:17:47.372Z,86.30
2018-10-11T13:20:16.590Z,86.40
2018-10-11T13:22:45.807Z,86.20
2018-10-11T13:25:14.974Z,86.30
2018-10-11T13:27:44.205Z,85.80
2018-10-11T13:30:13.467Z,85.00
2018-10-11T13:32:42.778Z,83.80
2018-10-11T13:35:12.042Z,84.50
2018-10-11T13:37:41.165Z,84.00
2018-10-11T13:40:10.393Z,83.70
2018-10-11T13:42:39.566Z,83.90
2018-10-11T13:45:08.826Z,84.30
2018-10-11T13:47:42.326Z,84.20
2018-10-11T13:50:07.333Z,84.10
2018-10-11T13:52:36.822Z,84.10
2018-10-11T13:55:11.102Z,83.20
2018-10-11T13:57:35.451Z,83.50
2018-10-11T14:00:04.760Z,83.60
2018-10-11T14:02:34.242Z,84.00
2018-10-11T14:05:04.149Z,83.70
2018-10-11T14:07:33.278Z,83.90
2018-10-11T14:10:04.210Z,84.40
2018-10-11T14:12:33.446Z,85.40
2018-10-11T14:15:02.778Z,85.80
2018-10-11T14:17:32.145Z,85.90
2018-10-11T14:20:01.400Z,85.80
2018-10-11T14:22:31.227Z,85.80
2018-10-11T14:25:03.585Z,86.50
2018-10-11T14:27:33.481Z,86.20
2018-10-11T14:30:02.922Z,87.70
2018-10-11T14:32:32.088Z,87.70
2018-10-11T14:35:01.319Z,88.80
2018-10-11T14:37:30.490Z,89.20
2018-10-11T14:40:00.144Z,89.20
2018-10-11T14:42:30.394Z,89.00
2018-10-11T14:44:59.539Z,88.40
2018-10-11T14:47:32.013Z,86.50
2018-10-11T14:50:01.200Z,86.80
2018-10-11T14:52:30.387Z,86.50
2018-10-11T14:54:59.778Z,88.10
2018-10-11T14:57:29.075Z,87.50
2018-10-11T14:59:58.159Z,86.60
2018-10-11T15:02:27.344Z,87.10
2018-10-11T15:04:56.530Z,86.40
2018-10-11T15:07:25.725Z,87.10
2018-10-11T15:09:54.946Z,89.50
2018-10-11T15:12:24.121Z,89.50
2018-10-11T15:14:53.334Z,89.50
2018-10-11T15:17:22.507Z,89.70
2018-10-11T15:19:51.702Z,90.00
2018-10-11T15:22:20.869Z,89.80
2018-10-11T15:24:50.055Z,90.00
2018-10-11T15:27:19.193Z,90.10
2018-10-11T15:29:48.475Z,90.40
2018-10-11T15:32:17.802Z,90.50
2018-10-11T15:34:47.085Z,90.70
2018-10-11T15:37:16.276Z,90.50
2018-10-11T15:39:45.498Z,90.50
2018-10-11T15:42:14.691Z,90.70
2018-10-11T15:44:43.834Z,90.60
2018-10-11T15:47:13.026Z,90.60
2018-10-11T15:49:42.283Z,90.70
2018-10-11T15:52:11.926Z,90.80
2018-10-11T15:54:41.025Z,91.10
2018-10-11T15:57:10.286Z,91.10
2018-10-11T15:59:39.455Z,91.10
2018-10-11T16:02:09.190Z,91.10
2018-10-11T16:04:38.354Z,91.30
2018-10-11T16:07:07.640Z,91.30
2018-10-11T16:09:36.891Z,91.30
2018-10-11T16:12:06.300Z,91.30
2018-10-11T16:14:35.389Z,91.50
2018-10-11T16:17:04.577Z,91.60
2018-10-11T16:19:33.771Z,91.60
2018-10-11T16:22:02.938Z,91.70
2018-10-11T16:24:32.155Z,91.90
2018-10-11T16:27:01.382Z,92.00
2018-10-11T16:29:30.598Z,92.00
2018-10-11T16:31:59.841Z,92.10
2018-10-11T16:34:29.035Z,92.30
2018-10-11T16:36:58.274Z,92.30
2018-10-11T16:39:27.449Z,92.20
2018-10-11T16:41:56.907Z,92.30
2018-10-11T16:44:26.240Z,92.50
2018-10-11T16:46:55.433Z,92.50
2018-10-11T16:49:24.671Z,92.50
2018-10-11T16:51:53.928Z,92.50
2018-10-11T16:54:23.112Z,92.60
2018-10-11T16:56:52.304Z,92.70
2018-10-11T16:59:21.785Z,92.80
2018-10-11T17:01:51.019Z,92.80
2018-10-11T17:04:20.209Z,92.90
2018-10-11T17:06:49.537Z,93.10
2018-10-11T17:09:19.197Z,93.20
2018-10-11T17:11:48.338Z,93.20
2018-10-11T17:14:17.520Z,93.30
2018-10-11T17:16:46.766Z,93.30
2018-10-11T17:19:16.133Z,93.30
2018-10-11T17:21:45.474Z,93.30
2018-10-11T17:24:14.523Z,93.30
2018-10-11T17:26:43.697Z,93.40
2018-10-11T17:29:12.874Z,93.50
2018-10-11T17:31:42.095Z,93.50
2018-10-11T17:34:11.295Z,93.40
2018-10-11T17:36:40.482Z,93.40
2018-10-11T17:39:10.963Z,93.40
2018-10-11T17:41:41.162Z,93.50
2018-10-11T17:44:11.054Z,93.50
2018-10-11T17:46:40.491Z,93.70
2018-10-11T17:49:09.744Z,93.80
2018-10-11T17:51:39.664Z,94.10
2018-10-11T17:54:08.932Z,94.30
2018-10-11T17:56:38.251Z,94.30
2018-10-11T17:59:07.797Z,94.30
2018-10-11T18:01:36.956Z,94.80
2018-10-11T18:04:06.247Z,94.70
2018-10-11T18:06:35.493Z,94.80
2018-10-11T18:09:06.394Z,95.60
2018-10-11T18:11:35.580Z,96.20
2018-10-11T18:14:04.784Z,96.70
2018-10-11T18:16:34.037Z,96.60
2018-10-11T18:19:03.306Z,97.20
2018-10-11T18:21:32.728Z,97.50
2018-10-11T18:24:02.065Z,97.30
2018-10-11T18:26:31.474Z,98.20
2018-10-11T18:29:00.980Z,98.50
2018-10-11T18:31:30.280Z,98.60
2018-10-11T18:33:59.630Z,99.10
2018-10-11T18:36:28.998Z,99.40
2018-10-11T18:38:58.477Z,99.80
2018-10-11T18:41:27.827Z,99.40
2018-10-11T18:43:57.318Z,99.70
2018-10-11T18:46:26.993Z,99.30
2018-10-11T18:48:56.464Z,99.20
2018-10-11T18:51:25.896Z,99.20
2018-10-11T18:53:55.212Z,99.40
2018-10-11T18:56:24.606Z,99.20
2018-10-11T18:58:53.995Z,99.30
2018-10-11T19:01:23.532Z,99.30
2018-10-11T19:03:53.162Z,98.90
2018-10-11T19:06:22.637Z,99.00
2018-10-11T19:08:51.946Z,99.10
2018-10-11T19:11:21.388Z,99.40
2018-10-11T19:13:50.765Z,99.20
2018-10-11T19:16:20.212Z,99.80
2018-10-11T19:18:49.611Z,99.00
2018-10-11T19:21:19.070Z,98.80
2018-10-11T19:23:48.524Z,99.00
2018-10-11T19:26:17.929Z,99.00
2018-10-11T19:28:47.248Z,98.90
2018-10-11T19:31:16.704Z,99.10
2018-10-11T19:33:46.144Z,99.10
2018-10-11T19:36:15.626Z,98.90
2018-10-11T19:38:44.976Z,99.10
2018-10-11T19:41:14.364Z,99.30
2018-10-11T19:43:43.762Z,99.40
2018-10-11T19:46:13.841Z,99.30
2018-10-11T19:48:43.256Z,99.20
2018-10-11T19:51:12.695Z,99.00
2018-10-11T19:53:42.168Z,99.10
2018-10-11T19:56:12.453Z,99.10
2018-10-11T19:58:41.780Z,99.00
2018-10-11T20:01:12.850Z,99.10
2018-10-11T20:03:43.570Z,99.20
2018-10-11T20:06:15.197Z,99.20
2018-10-11T20:08:49.304Z,99.20
2018-10-11T20:11:20.438Z,99.30
2018-10-11T20:13:50.201Z,99.30
2018-10-11T20:16:27.904Z,99.40
2018-10-11T20:18:59.171Z,99.50
2018-10-11T20:21:28.852Z,99.70
2018-10-11T20:23:59.274Z,99.80
2018-10-11T20:26:30.236Z,99.90
2018-10-11T20:29:01.308Z,99.90
2018-10-11T20:31:31.793Z,99.90
2018-10-11T20:34:02.695Z,99.90
2018-10-11T20:36:32.120Z,99.60
2018-10-11T20:39:01.430Z,99.40
2018-10-11T20:41:30.846Z,99.20
2018-10-11T20:44:00.356Z,99.30
2018-10-11T20:46:29.730Z,99.30
2018-10-11T20:48:59.863Z,99.40
2018-10-11T20:51:31.372Z,99.20
2018-10-11T20:54:01.652Z,99.10
2018-10-11T20:56:31.151Z,99.00
2018-10-11T20:59:00.563Z,98.80
2018-10-11T21:01:34.062Z,98.70
2018-10-11T21:04:06.122Z,98.90
2018-10-11T21:06:36.930Z,98.90
2018-10-11T21:09:10.231Z,98.70
2018-10-11T21:11:41.657Z,98.60
2018-10-11T21:14:12.646Z,99.00
2018-10-11T21:16:42.150Z,99.20
2018-10-11T21:19:12.027Z,99.30
2018-10-11T21:21:42.886Z,99.20
2018-10-11T21:24:12.459Z,99.10
2018-10-11T21:26:42.195Z,98.90
2018-10-11T21:29:13.537Z,98.80
2018-10-11T21:31:44.446Z,98.70
2018-10-11T21:34:14.717Z,98.90
2018-10-11T21:36:44.591Z,99.00
2018-10-11T21:39:15.319Z,99.10
2018-10-11T21:41:44.801Z,99.10
2018-10-11T21:44:14.088Z,99.20
2018-10-11T21:46:43.302Z,99.10
2018-10-11T21:49:14.486Z,99.10
2018-10-11T21:51:45.803Z,99.10
2018-10-11T21:54:17.234Z,98.90
2018-10-11T21:56:48.648Z,98.80
2018-10-11T21:59:19.968Z,98.50
2018-10-11T22:01:49.217Z,98.50
2018-10-11T22:04:18.394Z,98.40
2018-10-11T22:06:47.628Z,98.40
2018-10-11T22:09:19.256Z,98.50
2018-10-11T22:11:48.584Z,98.70
2018-10-11T22:14:21.957Z,98.70
2018-10-11T22:16:53.357Z,98.70
2018-10-11T22:19:24.192Z,98.80
2018-10-11T22:21:57.081Z,98.70
2018-10-11T22:24:28.217Z,98.60
2018-10-11T22:26:59.161Z,98.90
2018-10-11T22:29:28.469Z,99.10
2018-10-11T22:31:57.643Z,98.80
2018-10-11T22:34:26.898Z,98.80
2018-10-11T22:36:56.171Z,99.00
2018-10-11T22:39:25.294Z,99.10
2018-10-11T22:41:57.020Z,99.10
2018-10-11T22:44:26.283Z,99.20
2018-10-11T22:46:55.506Z,99.10
2018-10-11T22:49:24.716Z,98.90
2018-10-11T22:52:00.270Z,98.80
2018-10-11T22:54:29.565Z,98.20
2018-10-11T22:56:58.789Z,98.30
2018-10-11T22:59:28.239Z,98.10
2018-10-11T23:01:57.444Z,98.30
2018-10-11T23:04:29.505Z,98.20
2018-10-11T23:07:00.045Z,98.40
2018-10-11T23:09:29.299Z,98.40
2018-10-11T23:11:59.457Z,98.40
2018-10-11T23:14:30.426Z,98.30
2018-10-11T23:17:01.810Z,98.50
2018-10-11T23:19:30.981Z,98.70
2018-10-11T23:22:00.145Z,98.20
2018-10-11T23:24:29.325Z,98.20
2018-10-11T23:26:58.581Z,98.40
2018-10-11T23:29:27.733Z,98.50
2018-10-11T23:31:56.883Z,98.40
2018-10-11T23:34:26.099Z,98.50
2018-10-11T23:36:55.540Z,98.50
2018-10-11T23:39:24.668Z,98.60
2018-10-11T23:41:53.780Z,98.40
2018-10-11T23:44:22.917Z,98.40
2018-10-11T23:46:52.097Z,98.30
2018-10-11T23:49:21.266Z,98.10
2018-10-11T23:51:50.434Z,98.40
2018-10-11T23:54:19.602Z,98.10
2018-10-11T23:56:48.776Z,97.80
2018-10-11T23:59:17.970Z,97.80
